sensor_id;sensor_type;location;lat;lon;timestamp;P1;durP1;ratioP1;P2;durP2;ratioP2
11962;SDS011;62678;52.130;5.584;2024-01-06T00:00:37;16.23;;;11.07;;
11962;SDS011;62678;52.130;5.584;2024-01-06T00:03:04;19.10;;;12.70;;
11962;SDS011;62678;52.130;5.584;2024-01-06T00:05:31;19.20;;;12.13;;
11962;SDS011;62678;52.130;5.584;2024-01-06T00:07:58;18.00;;;12.70;;
11962;SDS011;62678;52.130;5.584;2024-01-06T00:10:25;19.85;;;13.68;;
11962;SDS011;62678;52.130;5.584;2024-01-06T00:12:52;18.90;;;12.55;;
11962;SDS011;62678;52.130;5.584;2024-01-06T00:15:20;19.45;;;12.95;;
11962;SDS011;62678;52.130;5.584;2024-01-06T00:17:48;16.40;;;12.25;;
11962;SDS011;62678;52.130;5.584;2024-01-06T00:20:15;16.80;;;11.93;;
11962;SDS011;62678;52.130;5.584;2024-01-06T00:22:42;17.20;;;11.95;;
11962;SDS011;62678;52.130;5.584;2024-01-06T00:25:10;15.60;;;11.63;;
11962;SDS011;62678;52.130;5.584;2024-01-06T00:27:37;11.90;;;9.35;;
11962;SDS011;62678;52.130;5.584;2024-01-06T00:30:05;10.10;;;8.77;;
11962;SDS011;62678;52.130;5.584;2024-01-06T00:32:33;9.77;;;7.88;;
11962;SDS011;62678;52.130;5.584;2024-01-06T00:35:02;9.45;;;8.27;;
11962;SDS011;62678;52.130;5.584;2024-01-06T00:37:29;9.38;;;8.18;;
11962;SDS011;62678;52.130;5.584;2024-01-06T00:39:56;10.13;;;8.73;;
11962;SDS011;62678;52.130;5.584;2024-01-06T00:42:23;13.05;;;10.13;;
11962;SDS011;62678;52.130;5.584;2024-01-06T00:44:50;14.23;;;10.85;;
11962;SDS011;62678;52.130;5.584;2024-01-06T00:47:18;15.18;;;11.10;;
11962;SDS011;62678;52.130;5.584;2024-01-06T00:49:47;14.77;;;11.73;;
11962;SDS011;62678;52.130;5.584;2024-01-06T00:52:15;15.55;;;12.07;;
11962;SDS011;62678;52.130;5.584;2024-01-06T00:54:43;16.75;;;12.40;;
11962;SDS011;62678;52.130;5.584;2024-01-06T00:57:10;17.45;;;13.20;;
11962;SDS011;62678;52.130;5.584;2024-01-06T00:59:37;19.02;;;13.77;;
11962;SDS011;62678;52.130;5.584;2024-01-06T01:02:04;18.92;;;13.77;;
11962;SDS011;62678;52.130;5.584;2024-01-06T01:04:31;18.33;;;13.52;;
11962;SDS011;62678;52.130;5.584;2024-01-06T01:06:59;18.27;;;14.32;;
11962;SDS011;62678;52.130;5.584;2024-01-06T01:09:27;19.52;;;13.68;;
11962;SDS011;62678;52.130;5.584;2024-01-06T01:11:54;23.48;;;15.43;;
11962;SDS011;62678;52.130;5.584;2024-01-06T01:14:22;18.95;;;14.13;;
11962;SDS011;62678;52.130;5.584;2024-01-06T01:16:49;20.40;;;13.82;;
11962;SDS011;62678;52.130;5.584;2024-01-06T01:19:16;21.55;;;14.68;;
11962;SDS011;62678;52.130;5.584;2024-01-06T01:21:43;21.85;;;14.98;;
11962;SDS011;62678;52.130;5.584;2024-01-06T01:24:10;22.83;;;15.32;;
11962;SDS011;62678;52.130;5.584;2024-01-06T01:26:39;21.40;;;15.30;;
11962;SDS011;62678;52.130;5.584;2024-01-06T01:29:06;23.30;;;15.00;;
11962;SDS011;62678;52.130;5.584;2024-01-06T01:31:33;23.73;;;15.77;;
11962;SDS011;62678;52.130;5.584;2024-01-06T01:34:00;25.67;;;16.02;;
11962;SDS011;62678;52.130;5.584;2024-01-06T01:36:27;24.40;;;16.88;;
11962;SDS011;62678;52.130;5.584;2024-01-06T01:38:55;24.35;;;17.10;;
11962;SDS011;62678;52.130;5.584;2024-01-06T01:41:22;26.33;;;18.38;;
11962;SDS011;62678;52.130;5.584;2024-01-06T01:43:51;25.08;;;17.10;;
11962;SDS011;62678;52.130;5.584;2024-01-06T01:46:23;25.80;;;17.55;;
11962;SDS011;62678;52.130;5.584;2024-01-06T01:48:51;23.70;;;17.02;;
11962;SDS011;62678;52.130;5.584;2024-01-06T01:51:18;24.58;;;15.73;;
11962;SDS011;62678;52.130;5.584;2024-01-06T01:53:46;22.35;;;15.50;;
11962;SDS011;62678;52.130;5.584;2024-01-06T01:56:13;22.63;;;15.55;;
11962;SDS011;62678;52.130;5.584;2024-01-06T01:58:41;21.73;;;15.55;;
11962;SDS011;62678;52.130;5.584;2024-01-06T02:01:09;20.55;;;15.25;;
11962;SDS011;62678;52.130;5.584;2024-01-06T02:03:36;20.75;;;15.52;;
11962;SDS011;62678;52.130;5.584;2024-01-06T02:06:04;19.10;;;14.18;;
11962;SDS011;62678;52.130;5.584;2024-01-06T02:08:32;19.52;;;14.60;;
11962;SDS011;62678;52.130;5.584;2024-01-06T02:10:59;19.27;;;14.40;;
11962;SDS011;62678;52.130;5.584;2024-01-06T02:13:32;20.42;;;14.55;;
11962;SDS011;62678;52.130;5.584;2024-01-06T02:16:00;22.00;;;13.77;;
11962;SDS011;62678;52.130;5.584;2024-01-06T02:18:29;19.33;;;14.05;;
11962;SDS011;62678;52.130;5.584;2024-01-06T02:20:56;20.05;;;14.98;;
11962;SDS011;62678;52.130;5.584;2024-01-06T02:23:26;21.70;;;16.05;;
11962;SDS011;62678;52.130;5.584;2024-01-06T02:25:53;19.90;;;15.02;;
11962;SDS011;62678;52.130;5.584;2024-01-06T02:28:20;20.67;;;15.35;;
11962;SDS011;62678;52.130;5.584;2024-01-06T02:30:48;22.45;;;16.25;;
11962;SDS011;62678;52.130;5.584;2024-01-06T02:33:15;20.98;;;14.38;;
11962;SDS011;62678;52.130;5.584;2024-01-06T02:35:44;21.58;;;15.88;;
11962;SDS011;62678;52.130;5.584;2024-01-06T02:38:11;23.67;;;17.42;;
11962;SDS011;62678;52.130;5.584;2024-01-06T02:40:40;23.85;;;16.92;;
11962;SDS011;62678;52.130;5.584;2024-01-06T02:43:07;22.67;;;16.73;;
11962;SDS011;62678;52.130;5.584;2024-01-06T02:45:35;24.30;;;17.00;;
11962;SDS011;62678;52.130;5.584;2024-01-06T02:48:02;24.17;;;16.52;;
11962;SDS011;62678;52.130;5.584;2024-01-06T02:50:30;24.30;;;17.33;;
11962;SDS011;62678;52.130;5.584;2024-01-06T02:52:57;22.63;;;16.80;;
11962;SDS011;62678;52.130;5.584;2024-01-06T02:55:24;25.35;;;18.42;;
11962;SDS011;62678;52.130;5.584;2024-01-06T02:57:52;25.42;;;17.65;;
11962;SDS011;62678;52.130;5.584;2024-01-06T03:00:20;28.10;;;18.63;;
11962;SDS011;62678;52.130;5.584;2024-01-06T03:02:47;28.38;;;18.63;;
11962;SDS011;62678;52.130;5.584;2024-01-06T03:05:14;28.02;;;18.77;;
11962;SDS011;62678;52.130;5.584;2024-01-06T03:07:42;29.08;;;19.10;;
11962;SDS011;62678;52.130;5.584;2024-01-06T03:10:09;30.38;;;20.00;;
11962;SDS011;62678;52.130;5.584;2024-01-06T03:12:36;26.70;;;18.25;;
11962;SDS011;62678;52.130;5.584;2024-01-06T03:15:05;31.13;;;19.65;;
11962;SDS011;62678;52.130;5.584;2024-01-06T03:17:33;33.95;;;19.98;;
11962;SDS011;62678;52.130;5.584;2024-01-06T03:20:00;29.63;;;19.70;;
11962;SDS011;62678;52.130;5.584;2024-01-06T03:22:27;29.85;;;19.73;;
11962;SDS011;62678;52.130;5.584;2024-01-06T03:24:55;30.05;;;19.45;;
11962;SDS011;62678;52.130;5.584;2024-01-06T03:27:22;31.02;;;20.63;;
11962;SDS011;62678;52.130;5.584;2024-01-06T03:29:49;32.53;;;20.35;;
11962;SDS011;62678;52.130;5.584;2024-01-06T03:32:18;29.05;;;18.75;;
11962;SDS011;62678;52.130;5.584;2024-01-06T03:34:45;28.92;;;18.45;;
11962;SDS011;62678;52.130;5.584;2024-01-06T03:37:12;28.73;;;17.98;;
11962;SDS011;62678;52.130;5.584;2024-01-06T03:39:39;28.83;;;18.58;;
11962;SDS011;62678;52.130;5.584;2024-01-06T03:42:06;29.52;;;18.67;;
11962;SDS011;62678;52.130;5.584;2024-01-06T03:44:33;28.58;;;18.70;;
11962;SDS011;62678;52.130;5.584;2024-01-06T03:47:00;30.08;;;18.75;;
11962;SDS011;62678;52.130;5.584;2024-01-06T03:49:29;30.38;;;19.08;;
11962;SDS011;62678;52.130;5.584;2024-01-06T03:51:56;29.67;;;18.92;;
11962;SDS011;62678;52.130;5.584;2024-01-06T03:54:23;29.10;;;18.20;;
11962;SDS011;62678;52.130;5.584;2024-01-06T03:56:50;26.08;;;17.88;;
11962;SDS011;62678;52.130;5.584;2024-01-06T03:59:18;26.45;;;17.58;;
11962;SDS011;62678;52.130;5.584;2024-01-06T04:01:45;29.73;;;19.65;;
11962;SDS011;62678;52.130;5.584;2024-01-06T04:04:12;28.92;;;18.73;;
11962;SDS011;62678;52.130;5.584;2024-01-06T04:06:40;28.75;;;18.63;;
11962;SDS011;62678;52.130;5.584;2024-01-06T04:09:07;28.67;;;18.52;;
11962;SDS011;62678;52.130;5.584;2024-01-06T04:11:35;28.92;;;18.73;;
11962;SDS011;62678;52.130;5.584;2024-01-06T04:14:02;28.20;;;18.20;;
11962;SDS011;62678;52.130;5.584;2024-01-06T04:16:29;31.67;;;18.63;;
11962;SDS011;62678;52.130;5.584;2024-01-06T04:18:56;29.40;;;18.23;;
11962;SDS011;62678;52.130;5.584;2024-01-06T04:21:23;25.67;;;16.58;;
11962;SDS011;62678;52.130;5.584;2024-01-06T04:23:52;23.60;;;14.52;;
11962;SDS011;62678;52.130;5.584;2024-01-06T04:26:21;19.02;;;11.77;;
11962;SDS011;62678;52.130;5.584;2024-01-06T04:28:48;21.08;;;12.52;;
11962;SDS011;62678;52.130;5.584;2024-01-06T04:31:15;20.83;;;12.57;;
11962;SDS011;62678;52.130;5.584;2024-01-06T04:33:42;20.42;;;13.02;;
11962;SDS011;62678;52.130;5.584;2024-01-06T04:36:09;20.60;;;12.88;;
11962;SDS011;62678;52.130;5.584;2024-01-06T04:38:37;18.08;;;12.15;;
11962;SDS011;62678;52.130;5.584;2024-01-06T04:41:06;18.85;;;11.85;;
11962;SDS011;62678;52.130;5.584;2024-01-06T04:43:33;15.80;;;10.93;;
11962;SDS011;62678;52.130;5.584;2024-01-06T04:46:00;17.75;;;11.02;;
11962;SDS011;62678;52.130;5.584;2024-01-06T04:48:27;19.08;;;12.50;;
11962;SDS011;62678;52.130;5.584;2024-01-06T04:50:55;20.20;;;13.32;;
11962;SDS011;62678;52.130;5.584;2024-01-06T04:53:22;19.55;;;13.02;;
11962;SDS011;62678;52.130;5.584;2024-01-06T04:55:49;19.10;;;13.00;;
11962;SDS011;62678;52.130;5.584;2024-01-06T04:58:17;20.00;;;13.90;;
11962;SDS011;62678;52.130;5.584;2024-01-06T05:00:44;19.85;;;13.52;;
11962;SDS011;62678;52.130;5.584;2024-01-06T05:03:12;23.42;;;13.55;;
11962;SDS011;62678;52.130;5.584;2024-01-06T05:05:39;20.23;;;14.05;;
11962;SDS011;62678;52.130;5.584;2024-01-06T05:08:07;20.45;;;13.50;;
11962;SDS011;62678;52.130;5.584;2024-01-06T05:10:35;18.70;;;13.20;;
11962;SDS011;62678;52.130;5.584;2024-01-06T05:13:02;18.13;;;12.95;;
11962;SDS011;62678;52.130;5.584;2024-01-06T05:15:30;18.48;;;13.10;;
11962;SDS011;62678;52.130;5.584;2024-01-06T05:17:58;17.88;;;13.40;;
11962;SDS011;62678;52.130;5.584;2024-01-06T05:20:25;17.48;;;12.95;;
11962;SDS011;62678;52.130;5.584;2024-01-06T05:22:52;17.55;;;12.85;;
11962;SDS011;62678;52.130;5.584;2024-01-06T05:25:19;18.17;;;12.75;;
11962;SDS011;62678;52.130;5.584;2024-01-06T05:27:46;17.10;;;12.35;;
11962;SDS011;62678;52.130;5.584;2024-01-06T05:30:13;16.98;;;12.88;;
11962;SDS011;62678;52.130;5.584;2024-01-06T05:32:42;16.75;;;13.10;;
11962;SDS011;62678;52.130;5.584;2024-01-06T05:35:09;18.48;;;14.25;;
11962;SDS011;62678;52.130;5.584;2024-01-06T05:37:36;16.73;;;13.07;;
11962;SDS011;62678;52.130;5.584;2024-01-06T05:40:04;19.52;;;13.98;;
11962;SDS011;62678;52.130;5.584;2024-01-06T05:42:31;17.40;;;13.50;;
11962;SDS011;62678;52.130;5.584;2024-01-06T05:44:59;18.55;;;14.35;;
11962;SDS011;62678;52.130;5.584;2024-01-06T05:47:26;20.42;;;14.35;;
11962;SDS011;62678;52.130;5.584;2024-01-06T05:49:54;21.13;;;15.23;;
11962;SDS011;62678;52.130;5.584;2024-01-06T05:52:22;19.98;;;14.38;;
11962;SDS011;62678;52.130;5.584;2024-01-06T05:54:49;18.60;;;14.55;;
11962;SDS011;62678;52.130;5.584;2024-01-06T05:57:16;19.95;;;14.75;;
11962;SDS011;62678;52.130;5.584;2024-01-06T05:59:44;20.58;;;14.73;;
11962;SDS011;62678;52.130;5.584;2024-01-06T06:02:11;22.48;;;16.83;;
11962;SDS011;62678;52.130;5.584;2024-01-06T06:04:38;20.38;;;15.50;;
11962;SDS011;62678;52.130;5.584;2024-01-06T06:07:07;19.77;;;14.65;;
11962;SDS011;62678;52.130;5.584;2024-01-06T06:09:34;19.65;;;15.07;;
11962;SDS011;62678;52.130;5.584;2024-01-06T06:12:03;19.40;;;14.27;;
11962;SDS011;62678;52.130;5.584;2024-01-06T06:14:30;21.15;;;15.05;;
11962;SDS011;62678;52.130;5.584;2024-01-06T06:16:57;20.55;;;13.60;;
11962;SDS011;62678;52.130;5.584;2024-01-06T06:19:24;19.33;;;14.70;;
11962;SDS011;62678;52.130;5.584;2024-01-06T06:21:51;18.05;;;14.10;;
11962;SDS011;62678;52.130;5.584;2024-01-06T06:24:20;19.98;;;14.38;;
11962;SDS011;62678;52.130;5.584;2024-01-06T06:26:47;20.48;;;14.55;;
11962;SDS011;62678;52.130;5.584;2024-01-06T06:29:14;19.85;;;14.30;;
11962;SDS011;62678;52.130;5.584;2024-01-06T06:31:42;22.15;;;15.18;;
11962;SDS011;62678;52.130;5.584;2024-01-06T06:34:09;23.77;;;15.82;;
11962;SDS011;62678;52.130;5.584;2024-01-06T06:36:37;20.35;;;14.63;;
11962;SDS011;62678;52.130;5.584;2024-01-06T06:39:04;20.40;;;14.90;;
11962;SDS011;62678;52.130;5.584;2024-01-06T06:41:32;21.45;;;14.60;;
11962;SDS011;62678;52.130;5.584;2024-01-06T06:43:59;21.60;;;15.02;;
11962;SDS011;62678;52.130;5.584;2024-01-06T06:46:27;21.38;;;14.50;;
11962;SDS011;62678;52.130;5.584;2024-01-06T06:48:54;21.73;;;14.52;;
11962;SDS011;62678;52.130;5.584;2024-01-06T06:51:21;21.70;;;14.80;;
11962;SDS011;62678;52.130;5.584;2024-01-06T06:53:51;18.08;;;12.73;;
11962;SDS011;62678;52.130;5.584;2024-01-06T06:56:18;20.20;;;13.18;;
11962;SDS011;62678;52.130;5.584;2024-01-06T06:58:47;17.08;;;12.60;;
11962;SDS011;62678;52.130;5.584;2024-01-06T07:01:14;18.38;;;13.20;;
11962;SDS011;62678;52.130;5.584;2024-01-06T07:03:41;17.98;;;12.43;;
11962;SDS011;62678;52.130;5.584;2024-01-06T07:06:11;20.40;;;13.50;;
11962;SDS011;62678;52.130;5.584;2024-01-06T07:08:38;19.92;;;13.98;;
11962;SDS011;62678;52.130;5.584;2024-01-06T07:11:07;22.67;;;13.32;;
11962;SDS011;62678;52.130;5.584;2024-01-06T07:13:34;19.08;;;13.85;;
11962;SDS011;62678;52.130;5.584;2024-01-06T07:16:02;21.33;;;14.93;;
11962;SDS011;62678;52.130;5.584;2024-01-06T07:18:30;21.45;;;14.35;;
11962;SDS011;62678;52.130;5.584;2024-01-06T07:20:57;19.83;;;13.38;;
11962;SDS011;62678;52.130;5.584;2024-01-06T07:23:24;19.08;;;12.65;;
11962;SDS011;62678;52.130;5.584;2024-01-06T07:25:51;20.10;;;13.70;;
11962;SDS011;62678;52.130;5.584;2024-01-06T07:28:18;20.48;;;13.43;;
11962;SDS011;62678;52.130;5.584;2024-01-06T07:30:45;18.17;;;12.77;;
11962;SDS011;62678;52.130;5.584;2024-01-06T07:33:14;17.38;;;12.95;;
11962;SDS011;62678;52.130;5.584;2024-01-06T07:35:41;18.08;;;12.95;;
11962;SDS011;62678;52.130;5.584;2024-01-06T07:38:08;18.75;;;12.45;;
11962;SDS011;62678;52.130;5.584;2024-01-06T07:40:36;18.67;;;12.65;;
11962;SDS011;62678;52.130;5.584;2024-01-06T07:43:04;19.10;;;12.98;;
11962;SDS011;62678;52.130;5.584;2024-01-06T07:45:31;17.45;;;12.43;;
11962;SDS011;62678;52.130;5.584;2024-01-06T07:47:58;16.65;;;12.38;;
11962;SDS011;62678;52.130;5.584;2024-01-06T07:50:28;16.88;;;12.65;;
11962;SDS011;62678;52.130;5.584;2024-01-06T07:52:55;16.75;;;12.27;;
11962;SDS011;62678;52.130;5.584;2024-01-06T07:55:23;18.38;;;12.68;;
11962;SDS011;62678;52.130;5.584;2024-01-06T07:57:53;19.23;;;12.88;;
11962;SDS011;62678;52.130;5.584;2024-01-06T08:00:21;16.38;;;12.38;;
11962;SDS011;62678;52.130;5.584;2024-01-06T08:02:48;17.83;;;13.23;;
11962;SDS011;62678;52.130;5.584;2024-01-06T08:05:15;16.77;;;12.63;;
11962;SDS011;62678;52.130;5.584;2024-01-06T08:07:44;19.58;;;13.13;;
11962;SDS011;62678;52.130;5.584;2024-01-06T08:10:11;16.67;;;13.05;;
11962;SDS011;62678;52.130;5.584;2024-01-06T08:12:38;18.48;;;13.25;;
11962;SDS011;62678;52.130;5.584;2024-01-06T08:15:05;19.27;;;13.55;;
11962;SDS011;62678;52.130;5.584;2024-01-06T08:17:34;16.88;;;12.55;;
11962;SDS011;62678;52.130;5.584;2024-01-06T08:20:02;16.55;;;12.57;;
11962;SDS011;62678;52.130;5.584;2024-01-06T08:22:30;15.23;;;12.18;;
11962;SDS011;62678;52.130;5.584;2024-01-06T08:24:58;16.85;;;12.20;;
11962;SDS011;62678;52.130;5.584;2024-01-06T08:27:27;15.60;;;12.80;;
11962;SDS011;62678;52.130;5.584;2024-01-06T08:29:54;14.95;;;12.18;;
11962;SDS011;62678;52.130;5.584;2024-01-06T08:32:22;16.48;;;12.05;;
11962;SDS011;62678;52.130;5.584;2024-01-06T08:34:49;16.40;;;11.68;;
11962;SDS011;62678;52.130;5.584;2024-01-06T08:37:16;15.90;;;11.63;;
11962;SDS011;62678;52.130;5.584;2024-01-06T08:39:43;17.45;;;12.02;;
11962;SDS011;62678;52.130;5.584;2024-01-06T08:42:12;15.68;;;12.35;;
11962;SDS011;62678;52.130;5.584;2024-01-06T08:44:39;15.30;;;11.15;;
11962;SDS011;62678;52.130;5.584;2024-01-06T08:47:06;13.93;;;11.18;;
11962;SDS011;62678;52.130;5.584;2024-01-06T08:49:33;17.00;;;11.93;;
11962;SDS011;62678;52.130;5.584;2024-01-06T08:52:01;15.50;;;11.27;;
11962;SDS011;62678;52.130;5.584;2024-01-06T08:54:28;17.23;;;11.63;;
11962;SDS011;62678;52.130;5.584;2024-01-06T08:56:55;17.15;;;11.18;;
11962;SDS011;62678;52.130;5.584;2024-01-06T08:59:24;13.73;;;10.32;;
11962;SDS011;62678;52.130;5.584;2024-01-06T09:01:51;13.00;;;10.48;;
11962;SDS011;62678;52.130;5.584;2024-01-06T09:04:18;15.52;;;10.30;;
11962;SDS011;62678;52.130;5.584;2024-01-06T09:06:46;13.05;;;10.13;;
11962;SDS011;62678;52.130;5.584;2024-01-06T09:09:13;15.73;;;10.23;;
11962;SDS011;62678;52.130;5.584;2024-01-06T09:11:40;14.45;;;10.77;;
11962;SDS011;62678;52.130;5.584;2024-01-06T09:14:09;14.60;;;9.85;;
11962;SDS011;62678;52.130;5.584;2024-01-06T09:16:38;14.02;;;10.32;;
11962;SDS011;62678;52.130;5.584;2024-01-06T09:19:05;15.27;;;10.68;;
11962;SDS011;62678;52.130;5.584;2024-01-06T09:21:32;13.10;;;10.10;;
11962;SDS011;62678;52.130;5.584;2024-01-06T09:24:00;11.18;;;9.32;;
11962;SDS011;62678;52.130;5.584;2024-01-06T09:26:31;11.30;;;10.00;;
11962;SDS011;62678;52.130;5.584;2024-01-06T09:28:58;14.43;;;10.75;;
11962;SDS011;62678;52.130;5.584;2024-01-06T09:31:26;11.77;;;9.70;;
11962;SDS011;62678;52.130;5.584;2024-01-06T09:33:54;14.20;;;10.27;;
11962;SDS011;62678;52.130;5.584;2024-01-06T09:36:21;13.32;;;10.02;;
11962;SDS011;62678;52.130;5.584;2024-01-06T09:38:48;13.60;;;10.25;;
11962;SDS011;62678;52.130;5.584;2024-01-06T09:41:16;12.93;;;10.32;;
11962;SDS011;62678;52.130;5.584;2024-01-06T09:43:43;15.77;;;10.48;;
11962;SDS011;62678;52.130;5.584;2024-01-06T09:46:11;14.48;;;10.82;;
11962;SDS011;62678;52.130;5.584;2024-01-06T09:48:42;13.13;;;10.70;;
11962;SDS011;62678;52.130;5.584;2024-01-06T09:51:11;13.85;;;10.90;;
11962;SDS011;62678;52.130;5.584;2024-01-06T09:53:41;14.02;;;11.02;;
11962;SDS011;62678;52.130;5.584;2024-01-06T09:56:09;13.55;;;10.75;;
11962;SDS011;62678;52.130;5.584;2024-01-06T09:58:37;12.98;;;10.98;;
11962;SDS011;62678;52.130;5.584;2024-01-06T10:01:06;13.18;;;11.10;;
11962;SDS011;62678;52.130;5.584;2024-01-06T10:03:34;14.30;;;10.88;;
11962;SDS011;62678;52.130;5.584;2024-01-06T10:06:02;13.60;;;10.90;;
11962;SDS011;62678;52.130;5.584;2024-01-06T10:08:30;16.98;;;12.10;;
11962;SDS011;62678;52.130;5.584;2024-01-06T10:11:00;15.05;;;11.15;;
11962;SDS011;62678;52.130;5.584;2024-01-06T10:13:28;14.73;;;11.80;;
11962;SDS011;62678;52.130;5.584;2024-01-06T10:15:56;15.50;;;11.60;;
11962;SDS011;62678;52.130;5.584;2024-01-06T10:18:24;15.65;;;12.57;;
11962;SDS011;62678;52.130;5.584;2024-01-06T10:20:53;13.90;;;11.63;;
11962;SDS011;62678;52.130;5.584;2024-01-06T10:23:21;19.42;;;14.68;;
11962;SDS011;62678;52.130;5.584;2024-01-06T10:25:52;17.65;;;12.40;;
11962;SDS011;62678;52.130;5.584;2024-01-06T10:28:20;14.93;;;11.55;;
11962;SDS011;62678;52.130;5.584;2024-01-06T10:30:48;14.48;;;11.98;;
11962;SDS011;62678;52.130;5.584;2024-01-06T10:33:15;16.23;;;12.30;;
11962;SDS011;62678;52.130;5.584;2024-01-06T10:35:42;13.90;;;11.77;;
11962;SDS011;62678;52.130;5.584;2024-01-06T10:38:11;13.38;;;11.20;;
11962;SDS011;62678;52.130;5.584;2024-01-06T10:40:38;12.75;;;9.88;;
11962;SDS011;62678;52.130;5.584;2024-01-06T10:43:06;11.48;;;9.77;;
11962;SDS011;62678;52.130;5.584;2024-01-06T10:45:35;14.35;;;9.95;;
11962;SDS011;62678;52.130;5.584;2024-01-06T10:48:03;11.50;;;9.23;;
11962;SDS011;62678;52.130;5.584;2024-01-06T10:50:31;12.35;;;9.13;;
11962;SDS011;62678;52.130;5.584;2024-01-06T10:52:59;14.45;;;10.38;;
11962;SDS011;62678;52.130;5.584;2024-01-06T10:55:28;13.02;;;10.57;;
11962;SDS011;62678;52.130;5.584;2024-01-06T10:57:56;14.30;;;10.23;;
11962;SDS011;62678;52.130;5.584;2024-01-06T11:00:26;14.48;;;10.77;;
11962;SDS011;62678;52.130;5.584;2024-01-06T11:02:53;11.85;;;9.90;;
11962;SDS011;62678;52.130;5.584;2024-01-06T11:05:20;13.50;;;10.63;;
11962;SDS011;62678;52.130;5.584;2024-01-06T11:07:48;12.40;;;9.80;;
11962;SDS011;62678;52.130;5.584;2024-01-06T11:10:17;13.70;;;10.20;;
11962;SDS011;62678;52.130;5.584;2024-01-06T11:12:45;13.25;;;9.60;;
11962;SDS011;62678;52.130;5.584;2024-01-06T11:17:55;11.52;;;9.95;;
11962;SDS011;62678;52.130;5.584;2024-01-06T11:20:23;10.85;;;9.25;;
11962;SDS011;62678;52.130;5.584;2024-01-06T11:22:51;11.23;;;9.95;;
11962;SDS011;62678;52.130;5.584;2024-01-06T11:25:19;12.32;;;10.10;;
11962;SDS011;62678;52.130;5.584;2024-01-06T11:27:47;11.95;;;10.02;;
11962;SDS011;62678;52.130;5.584;2024-01-06T11:30:24;11.93;;;9.45;;
11962;SDS011;62678;52.130;5.584;2024-01-06T11:32:52;13.98;;;10.43;;
11962;SDS011;62678;52.130;5.584;2024-01-06T11:35:21;13.55;;;10.85;;
11962;SDS011;62678;52.130;5.584;2024-01-06T11:37:55;12.68;;;10.00;;
11962;SDS011;62678;52.130;5.584;2024-01-06T11:40:31;13.57;;;10.27;;
11962;SDS011;62678;52.130;5.584;2024-01-06T11:42:59;11.93;;;10.55;;
11962;SDS011;62678;52.130;5.584;2024-01-06T11:45:27;12.18;;;9.95;;
11962;SDS011;62678;52.130;5.584;2024-01-06T11:47:55;14.63;;;10.27;;
11962;SDS011;62678;52.130;5.584;2024-01-06T11:50:25;12.95;;;10.30;;
11962;SDS011;62678;52.130;5.584;2024-01-06T11:52:52;13.27;;;10.98;;
11962;SDS011;62678;52.130;5.584;2024-01-06T11:55:19;12.45;;;10.25;;
11962;SDS011;62678;52.130;5.584;2024-01-06T11:57:47;15.70;;;10.93;;
11962;SDS011;62678;52.130;5.584;2024-01-06T12:00:15;14.07;;;11.13;;
11962;SDS011;62678;52.130;5.584;2024-01-06T12:02:42;17.13;;;11.10;;
11962;SDS011;62678;52.130;5.584;2024-01-06T12:05:15;14.88;;;11.60;;
11962;SDS011;62678;52.130;5.584;2024-01-06T12:07:52;14.85;;;11.80;;
11962;SDS011;62678;52.130;5.584;2024-01-06T12:10:20;19.35;;;12.68;;
11962;SDS011;62678;52.130;5.584;2024-01-06T12:12:54;15.57;;;12.38;;
11962;SDS011;62678;52.130;5.584;2024-01-06T12:15:21;15.90;;;12.20;;
11962;SDS011;62678;52.130;5.584;2024-01-06T12:17:48;17.90;;;12.70;;
11962;SDS011;62678;52.130;5.584;2024-01-06T12:20:15;17.95;;;12.93;;
11962;SDS011;62678;52.130;5.584;2024-01-06T12:22:42;18.17;;;13.10;;
11962;SDS011;62678;52.130;5.584;2024-01-06T12:25:11;22.48;;;13.80;;
11962;SDS011;62678;52.130;5.584;2024-01-06T12:27:41;16.13;;;12.23;;
11962;SDS011;62678;52.130;5.584;2024-01-06T12:30:11;17.92;;;13.10;;
11962;SDS011;62678;52.130;5.584;2024-01-06T12:32:40;17.10;;;13.30;;
11962;SDS011;62678;52.130;5.584;2024-01-06T12:35:08;18.63;;;13.40;;
11962;SDS011;62678;52.130;5.584;2024-01-06T12:37:36;16.65;;;12.55;;
11962;SDS011;62678;52.130;5.584;2024-01-06T12:40:04;17.45;;;13.50;;
11962;SDS011;62678;52.130;5.584;2024-01-06T12:42:32;17.65;;;13.70;;
11962;SDS011;62678;52.130;5.584;2024-01-06T12:45:01;18.23;;;13.70;;
11962;SDS011;62678;52.130;5.584;2024-01-06T12:47:28;18.10;;;14.00;;
11962;SDS011;62678;52.130;5.584;2024-01-06T12:49:55;19.30;;;14.45;;
11962;SDS011;62678;52.130;5.584;2024-01-06T12:52:23;17.58;;;14.13;;
11962;SDS011;62678;52.130;5.584;2024-01-06T12:54:50;18.25;;;14.63;;
11962;SDS011;62678;52.130;5.584;2024-01-06T12:57:17;17.83;;;13.73;;
11962;SDS011;62678;52.130;5.584;2024-01-06T12:59:46;16.38;;;12.82;;
11962;SDS011;62678;52.130;5.584;2024-01-06T13:02:13;18.02;;;13.50;;
11962;SDS011;62678;52.130;5.584;2024-01-06T13:04:40;20.67;;;14.45;;
11962;SDS011;62678;52.130;5.584;2024-01-06T13:07:08;20.92;;;14.57;;
11962;SDS011;62678;52.130;5.584;2024-01-06T13:09:35;18.27;;;13.80;;
11962;SDS011;62678;52.130;5.584;2024-01-06T13:12:03;19.85;;;13.68;;
11962;SDS011;62678;52.130;5.584;2024-01-06T13:14:30;15.57;;;12.50;;
11962;SDS011;62678;52.130;5.584;2024-01-06T13:16:59;19.05;;;14.00;;
11962;SDS011;62678;52.130;5.584;2024-01-06T13:19:27;18.23;;;13.70;;
11962;SDS011;62678;52.130;5.584;2024-01-06T13:21:54;17.63;;;13.40;;
11962;SDS011;62678;52.130;5.584;2024-01-06T13:24:21;20.88;;;13.45;;
11962;SDS011;62678;52.130;5.584;2024-01-06T13:26:49;20.58;;;14.27;;
11962;SDS011;62678;52.130;5.584;2024-01-06T13:29:16;21.25;;;14.60;;
11962;SDS011;62678;52.130;5.584;2024-01-06T13:31:43;18.83;;;13.77;;
11962;SDS011;62678;52.130;5.584;2024-01-06T13:34:12;17.52;;;13.70;;
11962;SDS011;62678;52.130;5.584;2024-01-06T13:36:39;19.13;;;13.50;;
11962;SDS011;62678;52.130;5.584;2024-01-06T13:39:06;17.55;;;13.18;;
11962;SDS011;62678;52.130;5.584;2024-01-06T13:41:33;20.88;;;14.40;;
11962;SDS011;62678;52.130;5.584;2024-01-06T13:44:00;18.33;;;14.15;;
11962;SDS011;62678;52.130;5.584;2024-01-06T13:46:28;18.77;;;13.80;;
11962;SDS011;62678;52.130;5.584;2024-01-06T13:48:55;18.75;;;13.45;;
11962;SDS011;62678;52.130;5.584;2024-01-06T13:51:23;20.35;;;14.85;;
11962;SDS011;62678;52.130;5.584;2024-01-06T13:53:51;19.92;;;14.25;;
11962;SDS011;62678;52.130;5.584;2024-01-06T13:56:18;19.88;;;14.90;;
11962;SDS011;62678;52.130;5.584;2024-01-06T13:58:45;20.27;;;14.63;;
11962;SDS011;62678;52.130;5.584;2024-01-06T14:01:12;21.65;;;15.15;;
11962;SDS011;62678;52.130;5.584;2024-01-06T14:03:40;18.58;;;13.73;;
11962;SDS011;62678;52.130;5.584;2024-01-06T14:06:07;18.67;;;13.65;;
11962;SDS011;62678;52.130;5.584;2024-01-06T14:08:35;18.98;;;13.32;;
11962;SDS011;62678;52.130;5.584;2024-01-06T14:11:02;16.58;;;12.65;;
11962;SDS011;62678;52.130;5.584;2024-01-06T14:13:30;17.98;;;13.05;;
11962;SDS011;62678;52.130;5.584;2024-01-06T14:15:57;15.70;;;12.38;;
11962;SDS011;62678;52.130;5.584;2024-01-06T14:18:24;17.50;;;12.32;;
11962;SDS011;62678;52.130;5.584;2024-01-06T14:20:52;19.13;;;13.43;;
11962;SDS011;62678;52.130;5.584;2024-01-06T14:23:20;15.02;;;11.82;;
11962;SDS011;62678;52.130;5.584;2024-01-06T14:25:50;16.13;;;12.98;;
11962;SDS011;62678;52.130;5.584;2024-01-06T14:28:17;15.35;;;12.02;;